Time;durP1;ratioP1;P1;durP2;ratioP2;P2;SDS_P1;SDS_P2;PMS_P1;PMS_P2;Temp;Humidity;BMP_temperature;BMP_pressure;BME280_temperature;BME280_humidity;BME280_pressure;Samples;Min_cycle;Max_cycle;Signal;HPM_P1;HPM_P2
2023/04/20 00:02:21;;;;;;;6.43;5.73;;;;;;;;;;4999887;28;20261;-52
2023/04/20 00:04:48;;;;;;;7.13;5.57;;;;;;;;;;4998716;28;20233;-52
2023/04/20 00:07:15;;;;;;;5.83;5.17;;;;;;;;;;5000392;28;20230;-51
2023/04/20 00:09:42;;;;;;;6.87;6.17;;;;;;;;;;4999329;28;20225;-53
2023/04/20 00:12:08;;;;;;;6.83;5.93;;;;;;;;;;4998498;28;20750;-52
2023/04/20 00:14:37;;;;;;;6.30;5.60;;;;;;;;;;4998145;28;20619;-52
2023/04/20 00:17:04;;;;;;;7.03;5.47;;;;;;;;;;4993282;28;20237;-51
2023/04/20 00:19:32;;;;;;;5.60;5.07;;;;;;;;;;4999708;28;20240;-52
2023/04/20 00:21:58;;;;;;;6.93;5.53;;;;;;;;;;4997611;28;20528;-52
2023/04/20 00:24:25;;;;;;;6.30;5.73;;;;;;;;;;4999054;28;20229;-52
2023/04/20 00:26:52;;;;;;;7.70;5.47;;;;;;;;;;4996508;28;20229;-52
2023/04/20 00:29:18;;;;;;;8.10;5.60;;;;;;;;;;4996453;28;20236;-53
2023/04/20 00:31:46;;;;;;;7.13;6.20;;;;;;;;;;5000842;28;20237;-53
2023/04/20 00:34:13;;;;;;;6.23;5.33;;;;;;;;;;4998407;28;20329;-52
2023/04/20 00:36:39;;;;;;;5.73;5.23;;;;;;;;;;4998904;28;20408;-52
2023/04/20 00:39:06;;;;;;;7.07;6.07;;;;;;;;;;4997102;28;20259;-52
2023/04/20 00:41:33;;;;;;;6.53;5.00;;;;;;;;;;5001399;28;20264;-53
2023/04/20 00:43:59;;;;;;;5.53;5.03;;;;;;;;;;4999049;28;20245;-54
2023/04/20 00:46:26;;;;;;;6.03;5.27;;;;;;;;;;4997055;28;20252;-54
2023/04/20 00:48:54;;;;;;;5.97;5.40;;;;;;;;;;4994054;28;20707;-54
2023/04/20 00:51:22;;;;;;;4.80;4.37;;;;;;;;;;4998755;28;20237;-52
2023/04/20 00:53:48;;;;;;;5.30;4.80;;;;;;;;;;5000929;28;20319;-52
2023/04/20 00:56:15;;;;;;;6.00;4.70;;;;;;;;;;5000793;28;20244;-52
2023/04/20 00:58:42;;;;;;;4.50;4.10;;;;;;;;;;5002915;28;20237;-52
2023/04/20 01:01:08;;;;;;;5.70;4.80;;;;;;;;;;5003184;28;20282;-53
2023/04/20 01:03:35;;;;;;;6.80;5.33;;;;;;;;;;5000665;28;20248;-52
2023/04/20 01:06:04;;;;;;;5.80;4.73;;;;;;;;;;4997696;28;20268;-53
2023/04/20 01:08:30;;;;;;;7.20;5.17;;;;;;;;;;5015700;28;20236;-52
2023/04/20 01:10:57;;;;;;;6.30;5.37;;;;;;;;;;5015461;28;20255;-52
2023/04/20 01:13:24;;;;;;;5.87;5.27;;;;;;;;;;5015943;28;20293;-52
2023/04/20 01:15:50;;;;;;;5.57;5.07;;;;;;;;;;5016175;28;20228;-55
2023/04/20 01:18:18;;;;;;;6.10;4.93;;;;;;;;;;5020960;28;20237;-58
2023/04/20 01:20:45;;;;;;;7.37;5.17;;;;;;;;;;5018687;28;20635;-55
2023/04/20 01:23:14;;;;;;;5.77;5.17;;;;;;;;;;5002417;28;20265;-52
2023/04/20 01:25:41;;;;;;;8.50;5.17;;;;;;;;;;5009394;28;20710;-52
2023/04/20 01:28:08;;;;;;;7.00;5.30;;;;;;;;;;4995355;28;20245;-53
2023/04/20 01:30:37;;;;;;;6.43;5.50;;;;;;;;;;5002892;28;20232;-53
2023/04/20 01:33:03;;;;;;;6.87;5.90;;;;;;;;;;5005738;28;20255;-53
2023/04/20 01:35:30;;;;;;;5.00;4.50;;;;;;;;;;5001789;28;20241;-52
2023/04/20 01:37:57;;;;;;;6.07;5.47;;;;;;;;;;5002546;28;20233;-52
2023/04/20 01:40:25;;;;;;;6.73;6.03;;;;;;;;;;5001115;28;20342;-51
2023/04/20 01:42:51;;;;;;;6.23;5.63;;;;;;;;;;5001194;28;20225;-51
2023/04/20 01:45:18;;;;;;;6.77;4.47;;;;;;;;;;5003690;28;20240;-52
2023/04/20 01:47:45;;;;;;;6.30;5.70;;;;;;;;;;5002800;28;20346;-53
2023/04/20 01:50:11;;;;;;;9.20;6.07;;;;;;;;;;4995236;28;20252;-52
2023/04/20 01:52:38;;;;;;;9.10;6.17;;;;;;;;;;5000237;28;20241;-53
2023/04/20 01:55:05;;;;;;;7.87;6.40;;;;;;;;;;4997374;28;20246;-51
2023/04/20 01:57:33;;;;;;;5.67;5.17;;;;;;;;;;4997903;28;20707;-51
2023/04/20 02:00:00;;;;;;;6.90;6.20;;;;;;;;;;5001456;28;20242;-53
2023/04/20 02:02:26;;;;;;;8.10;5.97;;;;;;;;;;4999158;28;20229;-53
2023/04/20 02:04:53;;;;;;;6.67;5.90;;;;;;;;;;4999469;28;20323;-52
2023/04/20 02:07:19;;;;;;;7.40;5.80;;;;;;;;;;4999908;28;20229;-52
2023/04/20 02:09:46;;;;;;;6.83;6.23;;;;;;;;;;5000493;28;20708;-53
2023/04/20 02:12:12;;;;;;;7.57;6.77;;;;;;;;;;4996651;28;20669;-54
2023/04/20 02:14:41;;;;;;;7.17;6.47;;;;;;;;;;5004146;28;20245;-51
2023/04/20 02:17:07;;;;;;;7.57;5.73;;;;;;;;;;4998890;28;20245;-53
2023/04/20 02:19:34;;;;;;;9.63;6.70;;;;;;;;;;5002582;28;20229;-52
2023/04/20 02:22:00;;;;;;;8.03;6.63;;;;;;;;;;5000683;28;20343;-52
2023/04/20 02:24:27;;;;;;;7.80;6.13;;;;;;;;;;4997160;28;20240;-54
2023/04/20 02:26:54;;;;;;;6.23;5.53;;;;;;;;;;4993185;28;20819;-53
2023/04/20 02:29:20;;;;;;;7.63;6.83;;;;;;;;;;5002506;28;20242;-53
2023/04/20 02:31:48;;;;;;;9.10;7.17;;;;;;;;;;5000866;28;20233;-52
2023/04/20 02:34:15;;;;;;;8.40;6.57;;;;;;;;;;5001227;28;20241;-52
2023/04/20 02:36:42;;;;;;;9.53;6.93;;;;;;;;;;5002238;28;20233;-54
2023/04/20 02:39:09;;;;;;;6.13;5.53;;;;;;;;;;4998640;28;20241;-52
2023/04/20 02:41:35;;;;;;;7.83;5.93;;;;;;;;;;4999295;28;20665;-51
2023/04/20 02:44:02;;;;;;;8.27;6.80;;;;;;;;;;5001736;28;20241;-53
2023/04/20 02:46:28;;;;;;;7.63;6.23;;;;;;;;;;5000298;28;20237;-53
2023/04/20 02:48:56;;;;;;;7.87;5.97;;;;;;;;;;4999735;28;20229;-52
2023/04/20 02:51:23;;;;;;;5.80;5.20;;;;;;;;;;4997757;28;20221;-52
2023/04/20 02:53:50;;;;;;;6.20;5.60;;;;;;;;;;5000445;28;20284;-51
2023/04/20 02:56:16;;;;;;;9.87;6.83;;;;;;;;;;5001766;28;20229;-53
2023/04/20 02:58:43;;;;;;;8.40;7.23;;;;;;;;;;5000604;28;20256;-52
2023/04/20 03:01:10;;;;;;;7.83;7.13;;;;;;;;;;4999867;28;20719;-50
2023/04/20 03:03:37;;;;;;;7.37;6.67;;;;;;;;;;5001492;28;20704;-53
2023/04/20 03:06:05;;;;;;;6.90;5.93;;;;;;;;;;4997007;28;20260;-54
2023/04/20 03:08:31;;;;;;;9.43;7.47;;;;;;;;;;5000030;28;20236;-51
2023/04/20 03:10:58;;;;;;;9.07;6.87;;;;;;;;;;5000603;28;20229;-54
2023/04/20 03:13:25;;;;;;;8.97;7.70;;;;;;;;;;4997603;28;20237;-52
2023/04/20 03:15:51;;;;;;;7.07;6.37;;;;;;;;;;4999102;28;20282;-52
2023/04/20 03:18:18;;;;;;;8.90;7.67;;;;;;;;;;4997358;28;20245;-54
2023/04/20 03:20:44;;;;;;;7.57;6.50;;;;;;;;;;5001454;28;20703;-53
2023/04/20 03:23:12;;;;;;;8.63;7.73;;;;;;;;;;5002351;28;20287;-54
2023/04/20 03:25:39;;;;;;;8.20;7.40;;;;;;;;;;5001626;28;20381;-54
2023/04/20 03:28:05;;;;;;;7.33;6.37;;;;;;;;;;4998438;28;20267;-52
2023/04/20 03:30:32;;;;;;;9.00;7.20;;;;;;;;;;5002873;28;20732;-52
2023/04/20 03:32:59;;;;;;;7.90;7.10;;;;;;;;;;5001502;28;20244;-53
2023/04/20 03:35:25;;;;;;;8.50;7.60;;;;;;;;;;4996804;28;20885;-52
2023/04/20 03:37:52;;;;;;;11.10;8.13;;;;;;;;;;5001793;28;20244;-52
2023/04/20 03:40:20;;;;;;;10.23;8.37;;;;;;;;;;5002014;28;20229;-51
2023/04/20 03:42:46;;;;;;;8.90;7.97;;;;;;;;;;5001174;28;20753;-52
2023/04/20 03:45:14;;;;;;;10.07;9.03;;;;;;;;;;5000500;28;20229;-51
2023/04/20 03:47:41;;;;;;;10.57;8.27;;;;;;;;;;5001631;28;20237;-51
2023/04/20 03:50:08;;;;;;;8.93;7.80;;;;;;;;;;5011341;28;20229;-52
2023/04/20 03:52:35;;;;;;;14.63;12.27;;;;;;;;;;5009881;28;20783;-53
2023/04/20 03:55:01;;;;;;;15.00;12.33;;;;;;;;;;5013228;28;20241;-55
2023/04/20 03:57:29;;;;;;;14.60;12.07;;;;;;;;;;5014081;28;20696;-52
2023/04/20 03:59:56;;;;;;;17.40;13.90;;;;;;;;;;5014914;28;20248;-52
2023/04/20 04:02:23;;;;;;;15.20;10.20;;;;;;;;;;5014562;28;20237;-53
2023/04/20 04:04:49;;;;;;;12.87;9.47;;;;;;;;;;5003696;28;20332;-63
2023/04/20 04:07:16;;;;;;;14.37;11.83;;;;;;;;;;5004058;28;20728;-53
2023/04/20 04:09:43;;;;;;;12.70;10.37;;;;;;;;;;5001154;28;20244;-54
2023/04/20 04:12:10;;;;;;;14.47;11.27;;;;;;;;;;5002110;28;20247;-53
2023/04/20 04:14:37;;;;;;;11.93;10.13;;;;;;;;;;4997656;28;20345;-52
2023/04/20 04:17:04;;;;;;;13.93;10.27;;;;;;;;;;4998888;28;20696;-53
2023/04/20 04:19:31;;;;;;;14.23;11.10;;;;;;;;;;5001379;28;20303;-54
2023/04/20 04:21:57;;;;;;;12.97;10.80;;;;;;;;;;4998219;28;20226;-53
2023/04/20 04:24:25;;;;;;;14.00;11.30;;;;;;;;;;5001517;28;20280;-53
2023/04/20 04:26:55;;;;;;;16.50;12.00;;;;;;;;;;4997679;28;20711;-54
2023/04/20 04:29:22;;;;;;;15.07;11.20;;;;;;;;;;4996195;28;20853;-53
2023/04/20 04:31:50;;;;;;;15.27;11.30;;;;;;;;;;5000214;28;20255;-53
2023/04/20 04:34:17;;;;;;;15.10;11.67;;;;;;;;;;4999427;28;20248;-53
2023/04/20 04:36:44;;;;;;;11.77;10.40;;;;;;;;;;5001448;28;20229;-52
2023/04/20 04:39:12;;;;;;;15.17;11.77;;;;;;;;;;5002080;28;20260;-53
2023/04/20 04:41:38;;;;;;;17.57;13.33;;;;;;;;;;5001700;28;20231;-54
2023/04/20 04:44:05;;;;;;;12.17;10.47;;;;;;;;;;4999235;28;20276;-52
2023/04/20 04:46:32;;;;;;;16.60;11.70;;;;;;;;;;4998540;28;20233;-52
2023/04/20 04:49:01;;;;;;;17.23;11.37;;;;;;;;;;4996256;28;20232;-54
2023/04/20 04:51:28;;;;;;;15.40;12.20;;;;;;;;;;5002294;28;20662;-54
2023/04/20 04:53:55;;;;;;;15.20;12.13;;;;;;;;;;5001663;28;20238;-53
2023/04/20 04:56:22;;;;;;;16.17;12.00;;;;;;;;;;5001952;28;20887;-53
2023/04/20 04:58:49;;;;;;;17.20;12.17;;;;;;;;;;4994155;28;20225;-54
2023/04/20 05:01:16;;;;;;;15.57;11.30;;;;;;;;;;4997869;28;20308;-53
2023/04/20 05:03:42;;;;;;;16.10;12.23;;;;;;;;;;5002236;28;20331;-53
2023/04/20 05:06:10;;;;;;;15.43;11.60;;;;;;;;;;4994955;28;20723;-52
2023/04/20 05:08:37;;;;;;;18.10;12.43;;;;;;;;;;4998782;28;20236;-52
2023/04/20 05:11:03;;;;;;;17.23;11.50;;;;;;;;;;4996078;28;20248;-52
2023/04/20 05:13:30;;;;;;;15.67;12.03;;;;;;;;;;4994581;28;20250;-51
2023/04/20 05:15:57;;;;;;;17.10;11.13;;;;;;;;;;4999948;28;20237;-52
2023/04/20 05:18:23;;;;;;;18.03;13.40;;;;;;;;;;4988099;28;20609;-52
2023/04/20 05:20:50;;;;;;;14.40;11.50;;;;;;;;;;5002086;28;20240;-52
2023/04/20 05:23:19;;;;;;;17.53;12.97;;;;;;;;;;5000209;28;20236;-52
2023/04/20 05:25:45;;;;;;;18.67;13.87;;;;;;;;;;4997894;28;20236;-52
2023/04/20 05:28:12;;;;;;;16.97;12.63;;;;;;;;;;4994320;28;20241;-52
2023/04/20 05:30:39;;;;;;;14.73;11.93;;;;;;;;;;4994720;28;20716;-54
2023/04/20 05:33:05;;;;;;;17.97;12.73;;;;;;;;;;4997204;28;20245;-53
2023/04/20 05:35:32;;;;;;;17.53;13.43;;;;;;;;;;4994568;28;20622;-52
2023/04/20 05:38:01;;;;;;;16.93;12.97;;;;;;;;;;4996667;28;20243;-53
2023/04/20 05:40:29;;;;;;;17.77;12.60;;;;;;;;;;5000098;28;20275;-52
2023/04/20 05:42:56;;;;;;;17.57;13.53;;;;;;;;;;4997134;28;20248;-52
2023/04/20 05:45:22;;;;;;;15.40;11.33;;;;;;;;;;4997422;28;20237;-52
2023/04/20 05:47:52;;;;;;;15.17;12.53;;;;;;;;;;4998514;28;20708;-54
2023/04/20 05:50:18;;;;;;;16.43;12.30;;;;;;;;;;5002103;28;20335;-54
2023/04/20 05:52:45;;;;;;;17.13;12.57;;;;;;;;;;4995036;28;20237;-51
2023/04/20 05:55:12;;;;;;;17.10;13.60;;;;;;;;;;4993719;28;20245;-53
2023/04/20 05:57:41;;;;;;;15.73;12.87;;;;;;;;;;5000959;28;20265;-52
2023/04/20 06:00:08;;;;;;;17.73;13.37;;;;;;;;;;5003835;28;20287;-53
2023/04/20 06:02:35;;;;;;;17.83;13.90;;;;;;;;;;4999812;28;20241;-52
2023/04/20 06:05:02;;;;;;;19.63;13.23;;;;;;;;;;4994976;28;20345;-52
2023/04/20 06:07:28;;;;;;;18.67;13.90;;;;;;;;;;5004358;28;20276;-53
2023/04/20 06:09:56;;;;;;;15.17;12.00;;;;;;;;;;5002531;28;20320;-53
2023/04/20 06:12:22;;;;;;;14.73;12.63;;;;;;;;;;5006776;28;20237;-52
2023/04/20 06:14:50;;;;;;;19.43;13.53;;;;;;;;;;5005163;28;20244;-52
2023/04/20 06:17:17;;;;;;;15.97;13.03;;;;;;;;;;5008249;28;20236;-59
2023/04/20 06:19:43;;;;;;;15.90;12.17;;;;;;;;;;5010230;28;20237;-53
2023/04/20 06:22:10;;;;;;;16.93;12.67;;;;;;;;;;5010256;28;20291;-52
2023/04/20 06:24:37;;;;;;;14.57;11.67;;;;;;;;;;4997153;28;20229;-53
2023/04/20 06:27:04;;;;;;;15.37;11.87;;;;;;;;;;5002867;28;20240;-53
2023/04/20 06:29:30;;;;;;;16.33;12.40;;;;;;;;;;5003224;28;20728;-54
2023/04/20 06:31:58;;;;;;;21.37;14.00;;;;;;;;;;5000478;28;20248;-52
2023/04/20 06:34:25;;;;;;;18.50;14.40;;;;;;;;;;5011394;28;20297;-53
2023/04/20 06:36:52;;;;;;;15.00;11.73;;;;;;;;;;5012143;28;20715;-51
2023/04/20 06:39:18;;;;;;;20.83;13.57;;;;;;;;;;5012948;28;20244;-53
2023/04/20 06:41:45;;;;;;;15.23;12.03;;;;;;;;;;5012174;28;20225;-53
2023/04/20 06:44:11;;;;;;;15.27;13.00;;;;;;;;;;5017411;28;20229;-52
2023/04/20 06:46:38;;;;;;;14.57;12.93;;;;;;;;;;5011288;28;20234;-52
2023/04/20 06:49:06;;;;;;;15.97;12.90;;;;;;;;;;5000550;28;20240;-52
2023/04/20 06:51:33;;;;;;;15.13;11.47;;;;;;;;;;5000831;28;20242;-53
2023/04/20 06:54:00;;;;;;;16.20;13.77;;;;;;;;;;5001560;28;20236;-54
2023/04/20 06:56:26;;;;;;;16.63;12.47;;;;;;;;;;5000524;28;20268;-52
2023/04/20 06:58:53;;;;;;;18.37;12.83;;;;;;;;;;4996676;28;20236;-52
2023/04/20 07:01:19;;;;;;;16.97;12.77;;;;;;;;;;4996711;28;20229;-53
2023/04/20 07:03:46;;;;;;;24.10;13.00;;;;;;;;;;5000508;28;20238;-51
2023/04/20 07:06:15;;;;;;;15.00;12.57;;;;;;;;;;5000192;28;20312;-53
2023/04/20 07:08:42;;;;;;;16.33;13.50;;;;;;;;;;5000260;28;22207;-53
2023/04/20 07:11:08;;;;;;;15.47;12.73;;;;;;;;;;5003803;28;20249;-54
2023/04/20 07:13:35;;;;;;;16.87;13.87;;;;;;;;;;4999685;28;20241;-52
2023/04/20 07:16:02;;;;;;;19.20;12.80;;;;;;;;;;4999934;28;21828;-57
2023/04/20 07:18:28;;;;;;;15.80;12.73;;;;;;;;;;5001408;28;20763;-55
2023/04/20 07:20:55;;;;;;;15.23;11.73;;;;;;;;;;5000553;28;20237;-54
2023/04/20 07:23:23;;;;;;;14.83;12.37;;;;;;;;;;5002960;28;20260;-53
2023/04/20 07:25:49;;;;;;;15.80;12.10;;;;;;;;;;5000614;28;20674;-53
2023/04/20 07:28:16;;;;;;;16.37;13.60;;;;;;;;;;4997598;28;20225;-52
2023/04/20 07:30:43;;;;;;;19.27;14.30;;;;;;;;;;4996999;28;20911;-52
2023/04/20 07:33:09;;;;;;;16.63;13.33;;;;;;;;;;4997235;28;20230;-52
2023/04/20 07:35:36;;;;;;;19.37;14.63;;;;;;;;;;5001894;28;20241;-52
2023/04/20 07:38:03;;;;;;;17.80;14.20;;;;;;;;;;4999015;28;20244;-52
2023/04/20 07:40:31;;;;;;;18.80;15.33;;;;;;;;;;5002130;28;20316;-52
2023/04/20 07:42:57;;;;;;;18.00;15.07;;;;;;;;;;5001017;28;20237;-53
2023/04/20 07:45:24;;;;;;;17.53;15.63;;;;;;;;;;5000091;28;20232;-51
2023/04/20 07:47:52;;;;;;;16.97;14.70;;;;;;;;;;4998723;28;20306;-51
2023/04/20 07:50:19;;;;;;;17.60;13.70;;;;;;;;;;5002505;28;20244;-55
2023/04/20 07:52:45;;;;;;;18.70;13.80;;;;;;;;;;4997427;28;20776;-52
2023/04/20 07:55:13;;;;;;;15.60;13.23;;;;;;;;;;4999052;28;20244;-52
2023/04/20 07:57:41;;;;;;;14.70;13.10;;;;;;;;;;4999482;28;20320;-53
2023/04/20 08:00:08;;;;;;;23.10;13.57;;;;;;;;;;4995826;28;20241;-52
2023/04/20 08:02:35;;;;;;;15.57;13.00;;;;;;;;;;4995223;28;20233;-53
2023/04/20 08:05:02;;;;;;;17.17;13.00;;;;;;;;;;4997568;28;20285;-52
2023/04/20 08:07:28;;;;;;;15.43;13.23;;;;;;;;;;4999343;28;20323;-53
2023/04/20 08:09:55;;;;;;;15.70;12.23;;;;;;;;;;5002237;28;20324;-52
2023/04/20 08:12:22;;;;;;;15.60;13.97;;;;;;;;;;5004633;28;20233;-52
2023/04/20 08:14:50;;;;;;;15.80;13.53;;;;;;;;;;5000736;28;20673;-53
2023/04/20 08:17:16;;;;;;;14.80;12.47;;;;;;;;;;5001305;28;20327;-54
2023/04/20 08:19:43;;;;;;;14.90;12.63;;;;;;;;;;4996922;28;20830;-52
2023/04/20 08:22:11;;;;;;;14.73;12.67;;;;;;;;;;4995844;28;20707;-52
2023/04/20 08:24:37;;;;;;;12.77;11.47;;;;;;;;;;4997671;28;20636;-52
2023/04/20 08:27:05;;;;;;;14.03;11.83;;;;;;;;;;4994859;28;20237;-53
2023/04/20 08:29:32;;;;;;;14.77;11.40;;;;;;;;;;4996596;28;20256;-52
2023/04/20 08:32:00;;;;;;;15.10;12.90;;;;;;;;;;4987508;28;20276;-53
2023/04/20 08:34:26;;;;;;;14.23;11.87;;;;;;;;;;4994716;28;20319;-53
2023/04/20 08:36:53;;;;;;;12.77;11.43;;;;;;;;;;5004327;28;20283;-52
2023/04/20 08:39:20;;;;;;;14.73;11.57;;;;;;;;;;4987674;28;20229;-55
2023/04/20 08:41:49;;;;;;;16.83;12.40;;;;;;;;;;4998235;28;20225;-53
2023/04/20 08:44:15;;;;;;;15.03;12.30;;;;;;;;;;4996293;28;20246;-53
2023/04/20 08:46:44;;;;;;;12.40;10.47;;;;;;;;;;5001111;28;20230;-52
2023/04/20 08:49:12;;;;;;;12.37;10.63;;;;;;;;;;4997728;28;20795;-53
2023/04/20 08:51:39;;;;;;;14.63;11.53;;;;;;;;;;5000630;28;20225;-53
2023/04/20 08:54:06;;;;;;;12.33;11.03;;;;;;;;;;4998016;28;20311;-54
2023/04/20 08:56:33;;;;;;;13.20;10.97;;;;;;;;;;4997201;28;21724;-54
2023/04/20 08:59:02;;;;;;;12.60;10.83;;;;;;;;;;4989965;28;20758;-54
2023/04/20 09:01:29;;;;;;;12.57;10.60;;;;;;;;;;5002559;28;20253;-52
2023/04/20 09:03:56;;;;;;;13.00;11.67;;;;;;;;;;4992878;28;20605;-54
2023/04/20 09:06:24;;;;;;;14.83;11.40;;;;;;;;;;4995128;28;20889;-53
2023/04/20 09:08:50;;;;;;;15.23;12.20;;;;;;;;;;4996910;28;20230;-51
2023/04/20 09:11:21;;;;;;;14.43;12.10;;;;;;;;;;4998817;28;20610;-52
2023/04/20 09:13:57;;;;;;;14.87;11.27;;;;;;;;;;5001680;28;20244;-52
2023/04/20 09:16:23;;;;;;;13.50;11.40;;;;;;;;;;4999392;28;20674;-53
2023/04/20 09:18:51;;;;;;;12.93;11.57;;;;;;;;;;5017268;28;20234;-52
2023/04/20 09:21:18;;;;;;;14.83;11.67;;;;;;;;;;5021566;28;20241;-53
2023/04/20 09:23:55;;;;;;;14.63;11.80;;;;;;;;;;5003021;28;20861;-53
2023/04/20 09:26:22;;;;;;;16.30;12.53;;;;;;;;;;5012014;28;20618;-59
2023/04/20 09:28:48;;;;;;;14.90;11.77;;;;;;;;;;5019706;28;20225;-54
2023/04/20 09:31:18;;;;;;;15.83;12.43;;;;;;;;;;5011718;28;20241;-53
2023/04/20 09:33:45;;;;;;;16.40;11.50;;;;;;;;;;5003854;28;20333;-52
2023/04/20 09:36:12;;;;;;;20.13;13.80;;;;;;;;;;5001923;28;20242;-53
2023/04/20 09:38:39;;;;;;;17.47;12.40;;;;;;;;;;5000954;28;20230;-54
2023/04/20 09:41:07;;;;;;;13.03;11.43;;;;;;;;;;4998338;28;20233;-53
2023/04/20 09:43:35;;;;;;;13.00;11.37;;;;;;;;;;5004666;28;20241;-52
2023/04/20 09:46:03;;;;;;;15.73;12.23;;;;;;;;;;5004689;28;20233;-53
2023/04/20 09:48:29;;;;;;;13.17;11.47;;;;;;;;;;4995387;28;20229;-52
2023/04/20 09:50:56;;;;;;;16.90;12.60;;;;;;;;;;4997625;28;20726;-53
2023/04/20 09:53:23;;;;;;;14.97;12.00;;;;;;;;;;5004155;28;20299;-53
2023/04/20 09:55:52;;;;;;;14.97;12.33;;;;;;;;;;5002918;28;20244;-54
2023/04/20 09:58:20;;;;;;;15.67;13.57;;;;;;;;;;5000245;28;20225;-53
2023/04/20 10:00:47;;;;;;;13.23;11.83;;;;;;;;;;5001875;28;20586;-52
2023/04/20 10:03:16;;;;;;;14.10;12.63;;;;;;;;;;5000878;28;20240;-51
2023/04/20 10:05:42;;;;;;;12.90;11.53;;;;;;;;;;4999013;28;20233;-52
2023/04/20 10:08:09;;;;;;;14.37;11.33;;;;;;;;;;5007079;28;20324;-54
2023/04/20 10:10:45;;;;;;;13.13;11.30;;;;;;;;;;5004272;28;20229;-54
2023/04/20 10:13:12;;;;;;;14.40;12.23;;;;;;;;;;5019621;28;20286;-54
2023/04/20 10:15:40;;;;;;;13.67;12.30;;;;;;;;;;5003786;28;20320;-51
2023/04/20 10:18:17;;;;;;;14.27;12.17;;;;;;;;;;5007042;28;20591;-52
2023/04/20 10:20:43;;;;;;;12.30;11.07;;;;;;;;;;5001878;28;20270;-52
2023/04/20 10:23:10;;;;;;;14.93;13.33;;;;;;;;;;4999452;28;20238;-53
2023/04/20 10:25:37;;;;;;;13.63;12.20;;;;;;;;;;5006335;28;20788;-52
2023/04/20 10:28:07;;;;;;;12.37;10.83;;;;;;;;;;5002837;28;20241;-53
2023/04/20 10:30:33;;;;;;;13.00;11.63;;;;;;;;;;5006498;28;21056;-53
2023/04/20 10:33:05;;;;;;;14.47;11.67;;;;;;;;;;5006249;28;20229;-52
2023/04/20 10:35:40;;;;;;;12.60;10.90;;;;;;;;;;5006500;28;20324;-52
2023/04/20 10:38:07;;;;;;;11.90;10.80;;;;;;;;;;5004907;28;20247;-53
2023/04/20 10:40:33;;;;;;;13.90;11.30;;;;;;;;;;4996803;28;20245;-52
2023/04/20 10:43:00;;;;;;;13.53;12.03;;;;;;;;;;5006178;28;20734;-53
2023/04/20 10:45:33;;;;;;;13.97;11.80;;;;;;;;;;5004567;28;20282;-52
2023/04/20 10:48:07;;;;;;;12.00;9.95;;;;;;;;;;4995394;28;20236;-54
2023/04/20 10:50:34;;;;;;;11.95;10.00;;;;;;;;;;5006479;28;20741;-52
2023/04/20 10:53:00;;;;;;;12.65;11.10;;;;;;;;;;5004577;28;20260;-54
2023/04/20 10:55:27;;;;;;;12.88;10.18;;;;;;;;;;5000288;28;20767;-53
2023/04/20 10:57:53;;;;;;;12.32;11.10;;;;;;;;;;5001784;28;20241;-51
2023/04/20 11:00:33;;;;;;;10.30;9.35;;;;;;;;;;5004985;28;20236;-53
2023/04/20 11:03:00;;;;;;;10.63;9.55;;;;;;;;;;5002883;28;20664;-54
2023/04/20 11:05:27;;;;;;;10.05;9.00;;;;;;;;;;4998658;28;20238;-52
2023/04/20 11:07:54;;;;;;;15.77;9.85;;;;;;;;;;5003493;28;20871;-54
2023/04/20 11:10:21;;;;;;;11.10;10.00;;;;;;;;;;5003532;28;20252;-52
2023/04/20 11:12:48;;;;;;;11.15;9.50;;;;;;;;;;5002174;28;20226;-53
2023/04/20 11:15:15;;;;;;;10.90;9.70;;;;;;;;;;4999209;28;20248;-52
2023/04/20 11:17:41;;;;;;;9.85;8.85;;;;;;;;;;5002835;28;20320;-54
2023/04/20 11:20:09;;;;;;;11.30;9.88;;;;;;;;;;5004576;28;20237;-55
2023/04/20 11:22:38;;;;;;;11.63;9.85;;;;;;;;;;5006646;28;20233;-52
2023/04/20 11:25:05;;;;;;;9.35;8.45;;;;;;;;;;5005850;28;20268;-52
2023/04/20 11:27:32;;;;;;;10.32;9.27;;;;;;;;;;4999736;28;20229;-51
2023/04/20 11:29:58;;;;;;;12.52;9.43;;;;;;;;;;5004646;28;20344;-52
2023/04/20 11:32:25;;;;;;;11.82;10.57;;;;;;;;;;5002271;28;20233;-52
2023/04/20 11:34:58;;;;;;;10.57;9.57;;;;;;;;;;4999753;28;20238;-51
2023/04/20 11:37:24;;;;;;;11.68;10.40;;;;;;;;;;5001243;28;20232;-52
2023/04/20 11:40:00;;;;;;;11.23;10.13;;;;;;;;;;4992311;28;20621;-51
2023/04/20 11:42:26;;;;;;;12.40;10.73;;;;;;;;;;5003045;28;20924;-52
2023/04/20 11:44:53;;;;;;;13.88;10.05;;;;;;;;;;5002962;28;20244;-52
2023/04/20 11:47:19;;;;;;;11.50;8.95;;;;;;;;;;5005500;28;20244;-52
2023/04/20 11:49:46;;;;;;;11.60;10.38;;;;;;;;;;5003029;28;20726;-52
2023/04/20 11:52:12;;;;;;;12.10;10.75;;;;;;;;;;4999693;28;20237;-52
2023/04/20 11:54:38;;;;;;;12.60;10.38;;;;;;;;;;4989265;28;20322;-53
2023/04/20 11:57:06;;;;;;;12.70;11.13;;;;;;;;;;5003005;28;20234;-52
2023/04/20 11:59:33;;;;;;;14.63;11.40;;;;;;;;;;5002823;28;20308;-53
2023/04/20 12:02:01;;;;;;;12.38;10.82;;;;;;;;;;5006653;28;20244;-52
2023/04/20 12:04:27;;;;;;;12.15;10.70;;;;;;;;;;5002276;28;20237;-52
2023/04/20 12:06:54;;;;;;;13.25;11.85;;;;;;;;;;5005053;28;20248;-52
2023/04/20 12:09:20;;;;;;;12.13;10.68;;;;;;;;;;5001516;28;20291;-55
2023/04/20 12:11:47;;;;;;;12.45;11.05;;;;;;;;;;5011463;28;20827;-54
2023/04/20 12:14:14;;;;;;;11.48;10.38;;;;;;;;;;5006285;28;22310;-53
2023/04/20 12:16:41;;;;;;;12.43;10.75;;;;;;;;;;4994820;28;20229;-54
2023/04/20 12:19:08;;;;;;;12.00;9.85;;;;;;;;;;4990170;28;20271;-52
2023/04/20 12:21:34;;;;;;;13.00;11.30;;;;;;;;;;4988921;28;20344;-55
2023/04/20 12:24:00;;;;;;;12.15;10.43;;;;;;;;;;4989495;28;20323;-52
2023/04/20 12:26:27;;;;;;;11.27;10.10;;;;;;;;;;4984237;28;21880;-54
2023/04/20 12:28:53;;;;;;;12.57;11.38;;;;;;;;;;4987010;28;20324;-51
2023/04/20 12:31:23;;;;;;;13.23;11.88;;;;;;;;;;4986338;28;20738;-52
2023/04/20 12:33:49;;;;;;;11.80;10.57;;;;;;;;;;4984905;28;20256;-55
2023/04/20 12:36:16;;;;;;;12.82;11.52;;;;;;;;;;4985252;28;20611;-53
2023/04/20 12:38:42;;;;;;;14.13;12.27;;;;;;;;;;4984228;28;20249;-52
2023/04/20 12:41:13;;;;;;;14.65;12.00;;;;;;;;;;4983824;28;20329;-51
2023/04/20 12:43:39;;;;;;;16.40;12.95;;;;;;;;;;4991298;28;20308;-54
2023/04/20 12:46:06;;;;;;;14.13;11.27;;;;;;;;;;5003262;28;20666;-52
2023/04/20 12:48:34;;;;;;;13.07;11.70;;;;;;;;;;5001252;28;20305;-53
2023/04/20 12:51:00;;;;;;;11.48;10.27;;;;;;;;;;4998222;28;20245;-53
2023/04/20 12:53:26;;;;;;;13.77;11.85;;;;;;;;;;4988319;28;20984;-53
2023/04/20 12:55:53;;;;;;;11.88;10.77;;;;;;;;;;4988004;28;20248;-52
2023/04/20 12:58:19;;;;;;;12.30;10.40;;;;;;;;;;4993629;28;20317;-53
2023/04/20 13:00:46;;;;;;;13.85;11.52;;;;;;;;;;5004339;28;20237;-52
2023/04/20 13:03:12;;;;;;;13.05;9.88;;;;;;;;;;5008946;28;20229;-51
2023/04/20 13:05:41;;;;;;;11.48;10.35;;;;;;;;;;5004399;28;20308;-52
2023/04/20 13:08:07;;;;;;;11.77;10.68;;;;;;;;;;5006835;28;20288;-52
2023/04/20 13:10:35;;;;;;;11.88;10.68;;;;;;;;;;5004072;28;20231;-54
2023/04/20 13:13:02;;;;;;;15.50;12.57;;;;;;;;;;5006804;28;20771;-54
2023/04/20 13:15:28;;;;;;;11.88;10.85;;;;;;;;;;4996584;28;20244;-52
2023/04/20 13:17:54;;;;;;;12.35;11.13;;;;;;;;;;4990537;28;20233;-53
2023/04/20 13:20:21;;;;;;;12.25;11.07;;;;;;;;;;4988895;28;22236;-53
2023/04/20 13:22:49;;;;;;;11.98;10.73;;;;;;;;;;4988408;28;20229;-55
2023/04/20 13:25:15;;;;;;;12.77;10.60;;;;;;;;;;4994993;28;20337;-52
2023/04/20 13:27:41;;;;;;;13.00;11.60;;;;;;;;;;5007832;28;20236;-53
2023/04/20 13:30:08;;;;;;;14.18;11.68;;;;;;;;;;5003589;28;20862;-52
2023/04/20 13:32:35;;;;;;;13.20;11.50;;;;;;;;;;5001261;28;20245;-54
2023/04/20 13:35:02;;;;;;;13.38;12.02;;;;;;;;;;5004326;28;20241;-53
2023/04/20 13:37:31;;;;;;;11.88;10.68;;;;;;;;;;5003591;28;20243;-54
2023/04/20 13:39:59;;;;;;;14.43;12.13;;;;;;;;;;5004335;28;20320;-53
2023/04/20 13:42:26;;;;;;;13.43;11.77;;;;;;;;;;5005184;28;20229;-54
2023/04/20 13:44:52;;;;;;;12.23;10.95;;;;;;;;;;5005279;28;20237;-52
2023/04/20 13:47:19;;;;;;;13.60;10.48;;;;;;;;;;5003999;28;20233;-53
2023/04/20 13:49:46;;;;;;;12.82;10.55;;;;;;;;;;5005174;28;20254;-53
2023/04/20 13:52:12;;;;;;;11.90;10.75;;;;;;;;;;5006142;28;20874;-54
2023/04/20 13:54:39;;;;;;;12.18;10.65;;;;;;;;;;5000181;28;20870;-53
2023/04/20 13:57:07;;;;;;;13.40;11.20;;;;;;;;;;5003972;28;20243;-54
2023/04/20 13:59:34;;;;;;;12.40;10.70;;;;;;;;;;5003305;28;20711;-51
2023/04/20 14:02:00;;;;;;;13.45;11.13;;;;;;;;;;5003357;28;20287;-53
2023/04/20 14:04:27;;;;;;;16.17;12.25;;;;;;;;;;5000802;28;20316;-53
2023/04/20 14:06:54;;;;;;;14.68;10.43;;;;;;;;;;4999296;28;20237;-51
2023/04/20 14:09:21;;;;;;;17.60;10.23;;;;;;;;;;5002846;28;20240;-53
2023/04/20 14:11:47;;;;;;;10.85;9.70;;;;;;;;;;4997842;28;20267;-55
2023/04/20 14:14:15;;;;;;;10.93;9.30;;;;;;;;;;5003290;28;20237;-53
2023/04/20 14:16:42;;;;;;;16.27;11.45;;;;;;;;;;5002074;28;20296;-51
2023/04/20 14:19:09;;;;;;;12.68;10.90;;;;;;;;;;5004474;28;22005;-51
2023/04/20 14:21:35;;;;;;;11.10;9.95;;;;;;;;;;5004171;28;20245;-52
2023/04/20 14:24:02;;;;;;;12.32;9.95;;;;;;;;;;5003043;28;20233;-52